createdAt,value
2018-11-27T00:02:25.913Z,3.40
2018-11-27T00:04:53.952Z,3.30
2018-11-27T00:07:21.992Z,3.20
2018-11-27T00:09:50.038Z,3.20
2018-11-27T00:12:18.074Z,3.30
2018-11-27T00:14:46.103Z,3.20
2018-11-27T00:17:14.142Z,3.30
2018-11-27T00:19:42.186Z,3.10
2018-11-27T00:22:10.226Z,3.10
2018-11-27T00:24:38.246Z,3.00
2018-11-27T00:27:06.314Z,3.10
2018-11-27T00:29:34.351Z,3.00
2018-11-27T00:32:02.411Z,3.00
2018-11-27T00:34:30.451Z,3.00
2018-11-27T00:36:58.534Z,3.10
2018-11-27T00:39:26.550Z,3.10
2018-11-27T00:41:54.575Z,3.10
2018-11-27T00:44:22.607Z,3.00
2018-11-27T00:46:50.636Z,2.90
2018-11-27T00:49:18.687Z,2.90
2018-11-27T00:51:46.706Z,2.80
2018-11-27T00:54:14.742Z,2.90
2018-11-27T00:56:42.770Z,2.70
2018-11-27T00:59:10.792Z,2.70
2018-11-27T01:01:39.161Z,2.70
2018-11-27T01:04:07.214Z,2.60
2018-11-27T01:06:35.234Z,2.60
2018-11-27T01:09:03.806Z,2.60
2018-11-27T01:11:31.849Z,2.60
2018-11-27T01:13:59.886Z,2.70
2018-11-27T01:16:27.922Z,2.70
2018-11-27T01:18:55.943Z,2.70
2018-11-27T01:21:23.963Z,2.70
2018-11-27T01:23:51.985Z,2.70
2018-11-27T01:26:20.019Z,2.70
2018-11-27T01:28:48.075Z,2.70
2018-11-27T01:31:16.123Z,2.70
2018-11-27T01:33:44.162Z,2.70
2018-11-27T01:36:12.190Z,2.60
2018-11-27T01:38:40.238Z,2.70
2018-11-27T01:41:08.292Z,2.80
2018-11-27T01:43:36.363Z,2.80
2018-11-27T01:46:04.786Z,2.80
2018-11-27T01:48:32.835Z,2.90
2018-11-27T01:51:00.875Z,2.80
2018-11-27T01:53:28.898Z,2.80
2018-11-27T01:55:56.947Z,2.80
2018-11-27T01:58:24.987Z,2.80
2018-11-27T02:00:53.019Z,2.70
2018-11-27T02:03:21.063Z,2.70
2018-11-27T02:05:49.111Z,2.60
2018-11-27T02:08:17.158Z,2.60
2018-11-27T02:10:45.201Z,2.50
2018-11-27T02:13:13.247Z,2.50
2018-11-27T02:15:41.280Z,2.60
2018-11-27T02:18:09.346Z,2.60
2018-11-27T02:20:37.370Z,2.60
2018-11-27T02:23:05.784Z,2.70
2018-11-27T02:25:34.843Z,2.80
2018-11-27T02:28:02.878Z,2.80
2018-11-27T02:30:30.931Z,2.90
2018-11-27T02:32:58.962Z,3.00
2018-11-27T02:35:27.124Z,3.10
2018-11-27T02:37:57.411Z,3.20
2018-11-27T02:40:25.456Z,3.20
2018-11-27T02:42:53.495Z,3.20
2018-11-27T02:45:22.552Z,3.20
2018-11-27T02:47:51.486Z,3.10
2018-11-27T02:50:20.563Z,3.20
2018-11-27T02:52:48.617Z,3.20
2018-11-27T02:55:17.727Z,3.10
2018-11-27T02:57:45.782Z,3.10
2018-11-27T03:00:14.808Z,3.10
2018-11-27T03:02:42.881Z,3.10
2018-11-27T03:05:13.198Z,3.10
2018-11-27T03:07:41.255Z,3.10
2018-11-27T03:10:11.672Z,3.10
2018-11-27T03:12:39.719Z,3.10
2018-11-27T03:15:10.727Z,3.10
2018-11-27T03:17:38.843Z,3.20
2018-11-27T03:20:08.588Z,3.20
2018-11-27T03:22:36.639Z,3.10
2018-11-27T03:25:06.478Z,3.10
2018-11-27T03:27:34.533Z,3.10
2018-11-27T03:30:02.583Z,3.10
2018-11-27T03:32:30.642Z,3.10
2018-11-27T03:34:58.664Z,3.20
2018-11-27T03:37:26.727Z,3.10
2018-11-27T03:39:54.742Z,3.20
2018-11-27T03:42:22.754Z,3.20
2018-11-27T03:44:50.787Z,3.20
2018-11-27T03:47:18.803Z,3.20
2018-11-27T03:49:46.839Z,3.20
2018-11-27T03:52:14.879Z,3.20
2018-11-27T03:54:42.900Z,3.20
2018-11-27T03:57:10.939Z,3.30
2018-11-27T03:59:39.046Z,3.30
2018-11-27T04:02:07.083Z,3.20
2018-11-27T04:04:35.124Z,3.20
2018-11-27T04:07:03.295Z,3.10
2018-11-27T04:09:31.310Z,3.10
2018-11-27T04:11:59.347Z,3.10
2018-11-27T04:14:27.380Z,3.10
2018-11-27T04:16:55.420Z,3.10
2018-11-27T04:19:23.434Z,3.20
2018-11-27T04:21:51.475Z,3.20
2018-11-27T04:24:19.553Z,3.20
2018-11-27T04:26:47.596Z,3.20
2018-11-27T04:29:15.695Z,3.20
2018-11-27T04:31:43.748Z,3.30
2018-11-27T04:34:11.775Z,3.20
2018-11-27T04:36:39.827Z,3.20
2018-11-27T04:39:08.829Z,3.20
2018-11-27T04:41:36.918Z,3.20
2018-11-27T04:44:05.243Z,3.20
2018-11-27T04:46:33.279Z,3.30
2018-11-27T04:49:01.319Z,3.30
2018-11-27T04:51:29.357Z,3.30
2018-11-27T04:53:57.980Z,3.20
2018-11-27T04:56:26.069Z,3.20
2018-11-27T04:58:54.108Z,3.20
2018-11-27T05:01:22.164Z,3.20
2018-11-27T05:03:50.178Z,3.30
2018-11-27T05:06:18.239Z,3.20
2018-11-27T05:08:46.270Z,3.30
2018-11-27T05:11:14.307Z,3.30
2018-11-27T05:13:42.358Z,3.30
2018-11-27T05:16:10.397Z,3.30
2018-11-27T05:18:38.444Z,3.40
2018-11-27T05:21:06.626Z,3.50
2018-11-27T05:23:34.664Z,3.60
2018-11-27T05:26:02.730Z,3.60
2018-11-27T05:28:30.802Z,3.70
2018-11-27T05:30:58.850Z,3.70
2018-11-27T05:33:26.878Z,3.60
2018-11-27T05:35:54.919Z,3.60
2018-11-27T05:38:22.959Z,3.60
2018-11-27T05:40:51.319Z,3.70
2018-11-27T05:43:19.363Z,3.80
2018-11-27T05:45:47.387Z,3.90
2018-11-27T05:48:15.427Z,3.90
2018-11-27T05:50:43.473Z,3.90
2018-11-27T05:53:11.514Z,3.90
2018-11-27T05:55:39.613Z,3.90
2018-11-27T05:58:07.619Z,3.80
2018-11-27T06:00:35.656Z,3.80
2018-11-27T06:03:03.674Z,3.70
2018-11-27T06:05:31.718Z,3.70
2018-11-27T06:07:59.754Z,3.70
2018-11-27T06:10:27.786Z,3.70
2018-11-27T06:12:55.846Z,3.70
2018-11-27T06:15:24.534Z,3.60
2018-11-27T06:17:57.902Z,3.50
2018-11-27T06:20:25.950Z,3.50
2018-11-27T06:22:54.514Z,3.50
2018-11-27T06:25:23.612Z,7.10
2018-11-27T06:27:53.106Z,3.50
2018-11-27T06:30:22.334Z,3.50
2018-11-27T06:32:50.362Z,3.50
2018-11-27T06:35:19.798Z,3.40
2018-11-27T06:37:47.869Z,3.40
2018-11-27T06:40:20.026Z,3.40
2018-11-27T06:42:48.054Z,3.40
2018-11-27T06:45:17.220Z,3.40
2018-11-27T06:47:46.071Z,3.30
2018-11-27T06:50:15.323Z,3.30
2018-11-27T06:52:43.347Z,3.30
2018-11-27T06:55:12.547Z,3.30
2018-11-27T06:57:40.607Z,3.40
2018-11-27T07:00:19.471Z,3.30
2018-11-27T07:02:47.516Z,3.30
2018-11-27T07:05:23.015Z,3.30
2018-11-27T07:07:51.051Z,3.30
2018-11-27T07:10:21.251Z,3.40
2018-11-27T07:12:50.362Z,3.40
2018-11-27T07:15:20.686Z,3.40
2018-11-27T07:17:48.704Z,3.40
2018-11-27T07:20:16.767Z,3.40
2018-11-27T07:22:44.798Z,3.40
2018-11-27T07:25:13.898Z,3.40
2018-11-27T07:27:44.384Z,3.30
2018-11-27T07:30:13.908Z,3.30
2018-11-27T07:32:41.938Z,3.30
2018-11-27T07:35:11.250Z,3.40
2018-11-27T07:37:39.351Z,3.40
2018-11-27T07:40:15.532Z,3.40
2018-11-27T07:42:43.621Z,3.40
2018-11-27T07:45:14.505Z,3.40
2018-11-27T07:47:42.592Z,3.40
2018-11-27T07:50:11.374Z,3.40
2018-11-27T07:52:39.450Z,3.40
2018-11-27T07:55:09.241Z,3.40
2018-11-27T07:57:37.418Z,3.40
2018-11-27T08:00:09.173Z,3.40
2018-11-27T08:02:37.223Z,3.40
2018-11-27T08:05:07.581Z,3.40
2018-11-27T08:07:35.618Z,3.40
2018-11-27T08:10:04.107Z,3.50
2018-11-27T08:12:32.182Z,3.60
2018-11-27T08:15:00.227Z,3.60
2018-11-27T08:17:28.247Z,3.70
2018-11-27T08:19:56.274Z,3.70
2018-11-27T08:22:24.300Z,3.80
2018-11-27T08:24:52.378Z,3.80
2018-11-27T08:27:20.436Z,3.80
2018-11-27T08:29:48.508Z,3.80
2018-11-27T08:32:16.539Z,3.80
2018-11-27T08:34:44.899Z,3.90
2018-11-27T08:37:12.975Z,4.00
2018-11-27T08:39:41.011Z,4.20
2018-11-27T08:42:09.072Z,4.20
2018-11-27T08:44:37.107Z,4.30
2018-11-27T08:47:05.627Z,4.30
2018-11-27T08:49:33.687Z,4.30
2018-11-27T08:52:01.723Z,4.30
2018-11-27T08:54:29.793Z,4.30
2018-11-27T08:56:57.838Z,4.30
2018-11-27T08:59:25.870Z,4.20
2018-11-27T09:01:53.982Z,4.30
2018-11-27T09:04:22.026Z,4.20
2018-11-27T09:06:50.082Z,4.40
2018-11-27T09:09:18.152Z,4.50
2018-11-27T09:11:46.174Z,4.60
2018-11-27T09:14:14.227Z,4.70
2018-11-27T09:16:42.314Z,4.80
2018-11-27T09:19:10.366Z,4.70
2018-11-27T09:21:38.468Z,4.70
2018-11-27T09:24:06.504Z,4.60
2018-11-27T09:26:34.526Z,4.60
2018-11-27T09:29:02.578Z,4.50
2018-11-27T09:31:30.599Z,4.60
2018-11-27T09:33:58.642Z,4.60
2018-11-27T09:36:26.676Z,4.50
2018-11-27T09:38:54.748Z,4.60
2018-11-27T09:41:22.775Z,4.70
2018-11-27T09:43:50.818Z,4.80
2018-11-27T09:46:18.837Z,4.80
2018-11-27T09:48:46.891Z,4.70
2018-11-27T09:51:14.917Z,4.70
2018-11-27T09:53:42.979Z,4.80
2018-11-27T09:56:11.033Z,4.80
2018-11-27T09:58:39.094Z,4.80
2018-11-27T10:01:07.218Z,4.80
2018-11-27T10:03:35.263Z,4.90
2018-11-27T10:06:03.278Z,4.90
2018-11-27T10:08:31.315Z,5.00
2018-11-27T10:10:59.346Z,5.00
2018-11-27T10:13:27.399Z,5.00
2018-11-27T10:15:55.423Z,5.20
2018-11-27T10:18:23.463Z,5.20
2018-11-27T10:20:51.498Z,5.20
2018-11-27T10:23:19.551Z,5.30
2018-11-27T10:25:47.568Z,5.20
2018-11-27T10:28:15.642Z,5.10
2018-11-27T10:30:43.653Z,5.10
2018-11-27T10:33:12.246Z,4.90
2018-11-27T10:35:46.055Z,4.80
2018-11-27T10:38:14.082Z,4.70
2018-11-27T10:40:42.125Z,4.70
2018-11-27T10:43:10.170Z,4.60
2018-11-27T10:45:38.198Z,4.60
2018-11-27T10:48:06.212Z,4.70
2018-11-27T10:50:34.263Z,4.70
2018-11-27T10:53:02.299Z,4.60
2018-11-27T10:55:30.332Z,4.60
2018-11-27T10:57:58.352Z,4.70
2018-11-27T11:00:32.414Z,4.80
2018-11-27T11:04:04.354Z,4.90
2018-11-27T11:06:32.905Z,4.90
2018-11-27T11:09:01.612Z,5.00
2018-11-27T11:11:29.654Z,5.00
2018-11-27T11:13:57.699Z,5.00
2018-11-27T11:16:25.785Z,5.10
2018-11-27T11:18:53.832Z,5.10
2018-11-27T11:21:21.847Z,5.10
2018-11-27T11:23:49.886Z,5.00
2018-11-27T11:26:17.919Z,4.90
2018-11-27T11:28:45.958Z,4.90
2018-11-27T11:31:14.039Z,5.00
2018-11-27T11:36:16.587Z,5.10
2018-11-27T11:38:44.685Z,5.10
2018-11-27T11:41:12.727Z,5.10
2018-11-27T11:43:40.760Z,5.00
2018-11-27T11:46:08.789Z,5.10
2018-11-27T11:48:36.827Z,5.20
2018-11-27T11:51:05.359Z,5.20
2018-11-27T11:53:33.391Z,5.30
2018-11-27T11:56:01.479Z,5.20
2018-11-27T11:58:29.617Z,5.20
2018-11-27T12:00:57.928Z,5.10
2018-11-27T12:03:26.007Z,5.10
2018-11-27T12:05:54.028Z,5.10
2018-11-27T12:08:22.080Z,5.00
2018-11-27T12:10:50.126Z,4.90
2018-11-27T12:13:18.166Z,4.90
2018-11-27T12:15:46.217Z,4.80
2018-11-27T12:18:14.299Z,4.90
2018-11-27T12:20:42.321Z,4.90
2018-11-27T12:23:11.315Z,4.80
2018-11-27T12:25:40.103Z,4.80
2018-11-27T12:28:14.353Z,4.80
2018-11-27T12:30:37.271Z,4.80
2018-11-27T12:33:05.847Z,4.70
2018-11-27T12:35:34.058Z,4.70
2018-11-27T12:38:02.134Z,4.70
2018-11-27T12:40:30.158Z,4.70
2018-11-27T12:42:58.419Z,4.60
2018-11-27T12:45:29.248Z,4.50
2018-11-27T12:47:58.250Z,4.50
2018-11-27T12:50:30.323Z,4.40
2018-11-27T12:52:58.339Z,4.50
2018-11-27T12:55:26.367Z,4.50
2018-11-27T12:57:54.401Z,4.60
2018-11-27T13:00:23.669Z,4.70
2018-11-27T13:02:51.745Z,4.70
2018-11-27T13:05:22.140Z,4.90
2018-11-27T13:07:51.133Z,5.00
2018-11-27T13:10:19.174Z,5.00
2018-11-27T13:12:47.218Z,5.00
2018-11-27T13:15:18.418Z,5.00
2018-11-27T13:17:47.290Z,5.10
2018-11-27T13:20:16.286Z,5.10
2018-11-27T13:22:44.334Z,5.10
2018-11-27T13:25:16.520Z,5.20
2018-11-27T13:27:44.560Z,5.20
2018-11-27T13:30:15.028Z,5.10
2018-11-27T13:32:43.694Z,5.10
2018-11-27T13:35:12.618Z,5.20
2018-11-27T13:37:40.866Z,5.30
2018-11-27T13:40:10.260Z,5.30
2018-11-27T13:42:38.338Z,5.20
2018-11-27T13:45:12.169Z,5.00
2018-11-27T13:47:40.836Z,4.90
2018-11-27T13:50:12.895Z,4.90
2018-11-27T13:52:40.978Z,4.90
2018-11-27T13:55:20.108Z,4.90
2018-11-27T13:57:48.171Z,5.00
2018-11-27T14:00:17.965Z,4.90
2018-11-27T14:02:49.636Z,4.90
2018-11-27T14:05:19.660Z,5.00
2018-11-27T14:07:47.762Z,5.00
2018-11-27T14:10:15.879Z,5.00
2018-11-27T14:12:43.920Z,5.00
2018-11-27T14:15:14.025Z,5.00
2018-11-27T14:17:42.065Z,5.00
2018-11-27T14:20:10.072Z,5.00
2018-11-27T14:22:38.104Z,5.00
2018-11-27T14:25:07.619Z,4.90
2018-11-27T14:27:35.678Z,4.90
2018-11-27T14:30:07.522Z,4.90
2018-11-27T14:32:35.591Z,4.90
2018-11-27T14:35:03.628Z,4.80
2018-11-27T14:37:31.679Z,4.80
2018-11-27T14:39:59.711Z,4.90
2018-11-27T14:42:27.763Z,5.00
2018-11-27T14:44:55.792Z,5.00
2018-11-27T14:47:23.857Z,5.00
2018-11-27T14:49:51.894Z,4.90
2018-11-27T14:52:19.946Z,4.90
2018-11-27T14:54:47.980Z,5.00
2018-11-27T14:57:16.026Z,5.10
2018-11-27T14:59:44.059Z,5.20
2018-11-27T15:02:12.131Z,5.30
2018-11-27T15:04:40.170Z,5.30
2018-11-27T15:07:08.267Z,5.30
2018-11-27T15:09:36.311Z,5.40
2018-11-27T15:12:04.683Z,5.50
2018-11-27T15:14:32.739Z,5.40
2018-11-27T15:17:00.772Z,5.40
2018-11-27T15:19:29.532Z,5.40
2018-11-27T15:21:58.395Z,5.10
2018-11-27T15:24:28.615Z,5.10
2018-11-27T15:26:57.538Z,5.10
2018-11-27T15:29:26.701Z,5.00
2018-11-27T15:31:55.677Z,5.00
2018-11-27T15:34:24.794Z,4.90
2018-11-27T15:36:54.385Z,4.70
2018-11-27T15:39:23.378Z,4.70
2018-11-27T15:41:53.467Z,4.70
2018-11-27T15:44:22.314Z,4.60
2018-11-27T15:46:52.034Z,4.50
2018-11-27T15:49:22.638Z,4.50
2018-11-27T15:51:52.522Z,4.40
2018-11-27T15:54:21.530Z,4.50
2018-11-27T15:56:50.420Z,4.40
2018-11-27T15:59:20.848Z,4.30
2018-11-27T16:01:50.179Z,4.20
2018-11-27T16:04:19.066Z,4.20
2018-11-27T16:06:49.014Z,4.20
2018-11-27T16:09:17.947Z,4.20
2018-11-27T16:11:48.006Z,4.20
2018-11-27T16:14:17.758Z,4.10
2018-11-27T16:16:47.049Z,4.00
2018-11-27T16:19:16.062Z,3.90
2018-11-27T16:21:45.067Z,3.90
2018-11-27T16:24:13.960Z,3.90
2018-11-27T16:26:42.733Z,3.80
2018-11-27T16:29:11.851Z,3.70
2018-11-27T16:31:40.630Z,3.60
2018-11-27T16:34:09.547Z,3.60
2018-11-27T16:36:38.529Z,3.60
2018-11-27T16:39:11.278Z,3.50
2018-11-27T16:41:39.477Z,3.50
2018-11-27T16:44:07.511Z,3.50
2018-11-27T16:46:35.558Z,3.50
2018-11-27T16:49:03.604Z,3.40
2018-11-27T16:51:31.628Z,3.40
2018-11-27T16:53:59.686Z,3.30
2018-11-27T16:56:27.715Z,3.30
2018-11-27T16:58:55.772Z,3.30
2018-11-27T17:01:23.783Z,3.30
2018-11-27T17:03:51.822Z,3.30
2018-11-27T17:06:19.882Z,3.20
2018-11-27T17:08:47.908Z,3.20
2018-11-27T17:11:15.997Z,3.20
2018-11-27T17:13:44.023Z,3.10
2018-11-27T17:16:12.063Z,3.10
2018-11-27T17:18:40.172Z,3.20
2018-11-27T17:21:08.218Z,3.20
2018-11-27T17:23:36.273Z,3.20
2018-11-27T17:26:04.293Z,3.20
2018-11-27T17:28:32.796Z,3.10
2018-11-27T17:31:07.684Z,3.10
2018-11-27T17:33:42.923Z,3.10
2018-11-27T17:36:10.995Z,3.10
2018-11-27T17:38:39.026Z,3.10
2018-11-27T17:41:07.867Z,3.10
2018-11-27T17:43:35.894Z,3.00
2018-11-27T17:46:04.106Z,3.00
2018-11-27T17:48:32.175Z,3.00
2018-11-27T17:51:00.219Z,2.90
2018-11-27T17:53:28.325Z,2.90
2018-11-27T17:55:56.358Z,2.80
2018-11-27T17:58:24.383Z,2.90
2018-11-27T18:00:52.468Z,2.90
2018-11-27T18:03:20.499Z,2.80
2018-11-27T18:05:48.576Z,2.80
2018-11-27T18:08:16.612Z,2.80
2018-11-27T18:10:44.662Z,2.80
2018-11-27T18:13:14.858Z,2.80
2018-11-27T18:15:41.602Z,2.80
2018-11-27T18:18:09.654Z,2.90
2018-11-27T18:20:37.695Z,2.90
2018-11-27T18:23:06.019Z,2.80
2018-11-27T18:25:35.137Z,2.90
2018-11-27T18:28:03.164Z,2.90
2018-11-27T18:30:31.215Z,2.90
2018-11-27T18:32:59.241Z,2.90
2018-11-27T18:35:27.299Z,2.80
2018-11-27T18:37:55.331Z,2.70
2018-11-27T18:40:23.369Z,2.60
2018-11-27T18:42:52.398Z,2.60
2018-11-27T18:45:22.622Z,2.60
2018-11-27T18:47:50.655Z,2.50
2018-11-27T18:50:18.851Z,2.50
2018-11-27T18:52:46.890Z,2.50
2018-11-27T18:55:15.591Z,2.50
2018-11-27T18:57:44.595Z,2.50
2018-11-27T19:00:15.745Z,2.50
2018-11-27T19:02:43.786Z,2.50
2018-11-27T19:05:11.803Z,2.50
2018-11-27T19:07:39.853Z,2.40
2018-11-27T19:10:11.646Z,2.40
2018-11-27T19:12:39.707Z,2.40
2018-11-27T19:15:11.828Z,2.40
2018-11-27T19:17:39.926Z,2.40
2018-11-27T19:20:10.664Z,2.40
2018-11-27T19:22:38.704Z,2.40
2018-11-27T19:25:10.587Z,2.30
2018-11-27T19:27:38.769Z,2.30
2018-11-27T19:30:16.005Z,2.20
2018-11-27T19:32:40.014Z,2.20
2018-11-27T19:35:10.467Z,2.10
2018-11-27T19:37:38.525Z,2.00
2018-11-27T19:40:11.412Z,2.10
2018-11-27T19:42:39.455Z,2.10
2018-11-27T19:45:09.886Z,2.10
2018-11-27T19:47:38.650Z,2.10
2018-11-27T19:50:10.070Z,2.10
2018-11-27T19:52:39.170Z,2.10
2018-11-27T19:55:09.149Z,2.10
2018-11-27T19:57:37.207Z,2.20
2018-11-27T20:00:13.483Z,2.20
2018-11-27T20:02:41.531Z,2.20
2018-11-27T20:05:10.747Z,2.20
2018-11-27T20:07:38.770Z,2.10
2018-11-27T20:10:08.754Z,2.10
2018-11-27T20:12:36.774Z,2.00
2018-11-27T20:15:07.335Z,1.90
2018-11-27T20:17:35.371Z,2.00
2018-11-27T20:20:03.439Z,1.90
2018-11-27T20:22:31.516Z,1.90
2018-11-27T20:24:59.580Z,1.90
2018-11-27T20:27:27.616Z,1.90
2018-11-27T20:29:55.670Z,1.90
2018-11-27T20:32:23.728Z,1.90
2018-11-27T20:34:51.783Z,1.90
2018-11-27T20:37:19.820Z,1.90
2018-11-27T20:39:47.888Z,1.90
2018-11-27T20:42:15.946Z,1.80
2018-11-27T20:44:43.974Z,1.70
2018-11-27T20:47:12.033Z,1.60
2018-11-27T20:49:40.096Z,1.60
2018-11-27T20:52:08.150Z,1.60
2018-11-27T20:54:36.197Z,1.60
2018-11-27T20:57:04.235Z,1.60
2018-11-27T20:59:32.333Z,1.60
2018-11-27T21:02:00.354Z,1.50
2018-11-27T21:04:28.419Z,1.50
2018-11-27T21:06:56.451Z,1.50
2018-11-27T21:09:24.488Z,1.50
2018-11-27T21:11:52.544Z,1.50
2018-11-27T21:14:20.586Z,1.50
2018-11-27T21:16:48.643Z,1.50
2018-11-27T21:19:16.673Z,1.50
2018-11-27T21:21:44.734Z,1.60
2018-11-27T21:24:12.782Z,1.60
2018-11-27T21:26:40.815Z,1.60
2018-11-27T21:29:08.837Z,1.60
2018-11-27T21:31:37.994Z,1.60
2018-11-27T21:34:04.936Z,1.60
2018-11-27T21:36:32.971Z,1.70
2018-11-27T21:39:01.014Z,1.70
2018-11-27T21:41:29.067Z,1.60
2018-11-27T21:43:57.127Z,1.70
2018-11-27T21:46:25.198Z,1.70
2018-11-27T21:48:53.233Z,1.70
2018-11-27T21:51:21.329Z,1.70
2018-11-27T21:53:49.343Z,1.60
2018-11-27T21:56:17.394Z,1.60
2018-11-27T21:58:45.435Z,1.60
2018-11-27T22:01:13.478Z,1.70
2018-11-27T22:03:41.532Z,1.70
2018-11-27T22:06:09.575Z,1.70
2018-11-27T22:08:40.669Z,1.70
2018-11-27T22:11:08.733Z,1.70
2018-11-27T22:13:36.762Z,1.70
2018-11-27T22:16:05.160Z,1.70
2018-11-27T22:18:33.213Z,1.70
2018-11-27T22:21:01.260Z,1.70
2018-11-27T22:23:29.287Z,1.70
2018-11-27T22:25:57.334Z,1.70
2018-11-27T22:28:25.410Z,1.70
2018-11-27T22:30:53.450Z,1.70
2018-11-27T22:33:21.491Z,1.70
2018-11-27T22:35:49.530Z,1.70
2018-11-27T22:38:17.585Z,1.70
2018-11-27T22:40:45.635Z,1.80
2018-11-27T22:43:13.689Z,1.80
2018-11-27T22:45:41.746Z,1.90
2018-11-27T22:48:11.006Z,1.90
2018-11-27T22:50:39.083Z,1.90
2018-11-27T22:53:08.061Z,1.80
2018-11-27T22:55:36.111Z,1.80
2018-11-27T22:58:04.827Z,1.80
2018-11-27T23:00:38.399Z,1.70
2018-11-27T23:03:06.442Z,1.80
2018-11-27T23:05:34.466Z,1.80
2018-11-27T23:08:02.506Z,1.80
2018-11-27T23:10:33.246Z,1.80
2018-11-27T23:13:01.275Z,1.80
2018-11-27T23:15:29.313Z,1.70
2018-11-27T23:17:57.351Z,1.70
2018-11-27T23:20:25.430Z,1.60
2018-11-27T23:22:53.450Z,1.60
2018-11-27T23:25:21.490Z,1.50
2018-11-27T23:27:49.663Z,1.50
2018-11-27T23:30:19.026Z,1.50
2018-11-27T23:32:47.087Z,1.50
2018-11-27T23:35:15.148Z,1.50
2018-11-27T23:37:43.184Z,1.50
2018-11-27T23:40:12.178Z,1.40
2018-11-27T23:42:40.507Z,1.40
2018-11-27T23:45:13.522Z,1.40
2018-11-27T23:47:41.555Z,1.40
2018-11-27T23:50:10.689Z,1.40
2018-11-27T23:52:38.722Z,1.30
2018-11-27T23:55:08.957Z,1.30
2018-11-27T23:57:37.187Z,1.30
